Nichols, Minnesota
Current Conditions -  °F | °C
As of 3:51 AM on Tuesday 21 Oct 2014 (Local Time) from KEVM Reporting Station
Broken Clouds Broken Clouds  
Wind Chill: 39°   Ceiling: 2600
Heat Index: 39°   Visibility: 10mi
Dew Point: 34°   Wind: 0mph
Humidity: 81%   Direction: NA
Pressure: 30.17"   Gusts: NA
Location:  47.4996°N, 92.6723°W
Report Text: KEVM 210851Z AUTO 00000KT 10SM BKN026 04/01 A3017 RMK AO2
Loading
Personal Weather Stations






























Interactive Weather Map
Tropical Storm Tracking
New forecast layout! Learn more

10-Day Weather Forecast

Advertisements
Track Severe Weather on mobile